Time;durP1;ratioP1;P1;durP2;ratioP2;P2;SDS_P1;SDS_P2;PMS_P1;PMS_P2;Temp;Humidity;BMP_temperature;BMP_pressure;BME280_temperature;BME280_humidity;BME280_pressure;Samples;Min_cycle;Max_cycle;Signal;HPM_P1;HPM_P2
2023/11/18 07:06:08;;;;;;;1.83;0.70;;;;;;;;;;1013990;23;22009;-90
2023/11/18 07:08:49;;;;;;;1.02;0.63;;;;;;;;;;4994408;28;20069;-89
2023/11/18 07:11:22;;;;;;;0.65;0.55;;;;;;;;;;5005038;28;20069;-87
2023/11/18 07:13:59;;;;;;;1.35;0.77;;;;;;;;;;4982745;28;20042;-87
2023/11/18 07:16:25;;;;;;;2.88;0.75;;;;;;;;;;5006240;28;20109;-88
2023/11/18 07:18:51;;;;;;;4.88;2.00;;;;;;;;;;4985933;28;20042;-83
2023/11/18 07:21:17;;;;;;;4.45;1.60;;;;;;;;;;4991529;28;20101;-83
2023/11/18 07:23:43;;;;;;;3.75;1.88;;;;;;;;;;4997120;28;20129;-83
2023/11/18 07:26:10;;;;;;;5.70;0.93;;;;;;;;;;4996417;28;20374;-82
2023/11/18 07:28:36;;;;;;;1.27;0.52;;;;;;;;;;4991258;28;20062;-85
2023/11/18 07:31:04;;;;;;;1.88;0.47;;;;;;;;;;4983702;28;20506;-85
2023/11/18 07:33:32;;;;;;;3.92;0.93;;;;;;;;;;4990604;28;20401;-83
2023/11/18 07:35:58;;;;;;;0.38;0.20;;;;;;;;;;4996496;28;20375;-85
2023/11/18 07:38:26;;;;;;;2.95;0.88;;;;;;;;;;5012635;28;20490;-85
2023/11/18 07:40:56;;;;;;;1.05;0.28;;;;;;;;;;4986827;28;20050;-85
2023/11/18 07:43:22;;;;;;;0.85;0.40;;;;;;;;;;5012093;28;20035;-84
2023/11/18 07:45:53;;;;;;;3.13;0.20;;;;;;;;;;4993025;28;20470;-85
2023/11/18 07:48:20;;;;;;;0.90;0.30;;;;;;;;;;5011410;28;20130;-84
2023/11/18 07:50:47;;;;;;;0.75;0.38;;;;;;;;;;4993932;28;20130;-85
2023/11/18 07:53:13;;;;;;;1.00;0.77;;;;;;;;;;5006955;28;20105;-85
2023/11/18 07:55:39;;;;;;;1.00;0.47;;;;;;;;;;5001049;28;20405;-82
2023/11/18 07:58:12;;;;;;;0.90;0.32;;;;;;;;;;5004389;28;20034;-83
2023/11/18 08:00:39;;;;;;;1.27;0.75;;;;;;;;;;5013559;28;20061;-83
2023/11/18 08:03:11;;;;;;;2.05;0.68;;;;;;;;;;4997918;28;20377;-84
2023/11/18 08:05:39;;;;;;;2.08;0.60;;;;;;;;;;4994556;28;20552;-87
2023/11/18 08:08:05;;;;;;;0.95;0.28;;;;;;;;;;4995004;28;20057;-85
2023/11/18 08:10:32;;;;;;;0.80;0.47;;;;;;;;;;4995780;28;20084;-87
2023/11/18 08:12:59;;;;;;;0.50;0.17;;;;;;;;;;4992143;28;20040;-84
2023/11/18 08:15:35;;;;;;;0.70;0.45;;;;;;;;;;5006822;28;20054;-86
2023/11/18 08:18:02;;;;;;;0.82;0.45;;;;;;;;;;4990989;28;20034;-84
2023/11/18 08:20:31;;;;;;;1.73;0.65;;;;;;;;;;4992076;28;20055;-85
2023/11/18 08:23:00;;;;;;;1.00;0.70;;;;;;;;;;4996330;28;20032;-86
2023/11/18 08:25:36;;;;;;;0.65;0.35;;;;;;;;;;5026453;23;20057;-87
2023/11/18 08:31:19;;;;;;;1.55;0.60;;;;;;;;;;5055649;22;20454;-86
2023/11/18 08:56:45;;;;;;;;;;;;;;;;;;;;;
2023/11/18 09:07:36;;;;;;;1.65;0.77;;;;;;;;;;5182580;23;20148;-87
2023/11/18 09:10:21;;;;;;;0.93;0.55;;;;;;;;;;5026451;23;20063;-88
2023/11/18 09:12:54;;;;;;;2.13;0.68;;;;;;;;;;4953180;28;20202;-87
2023/11/18 09:15:42;;;;;;;0.30;0.30;;;;;;;;;;5151606;23;20050;-87
2023/11/18 09:18:10;;;;;;;1.85;0.65;;;;;;;;;;5000397;28;20047;-85
2023/11/18 09:20:36;;;;;;;3.08;0.70;;;;;;;;;;4998602;28;20041;-86
2023/11/18 09:23:02;;;;;;;0.73;0.45;;;;;;;;;;5004541;28;20170;-84
2023/11/18 09:25:28;;;;;;;1.15;0.60;;;;;;;;;;5012142;28;20042;-83
2023/11/18 09:27:54;;;;;;;1.63;0.77;;;;;;;;;;5010543;28;20041;-84
2023/11/18 09:35:47;;;;;;;1.42;0.50;;;;;;;;;;5002191;28;20069;-85
2023/11/18 09:38:16;;;;;;;0.43;0.40;;;;;;;;;;5009138;28;20037;-87
2023/11/18 09:40:43;;;;;;;4.22;0.38;;;;;;;;;;5000530;28;20084;-87
2023/11/18 09:43:10;;;;;;;0.80;0.57;;;;;;;;;;4994718;28;20042;-88
2023/11/18 09:45:38;;;;;;;0.50;0.35;;;;;;;;;;4998861;28;20358;-89
2023/11/18 09:48:12;;;;;;;3.05;1.45;;;;;;;;;;5003725;28;20081;-85
2023/11/18 10:20:28;;;;;;;2.83;1.88;;;;;;;;;;5019476;28;20041;-86
2023/11/18 10:26:04;;;;;;;13.02;1.05;;;;;;;;;;5021123;28;20600;-86
2023/11/18 10:29:09;;;;;;;2.47;1.40;;;;;;;;;;5018432;28;20126;-86
2023/11/18 10:32:00;;;;;;;2.72;1.58;;;;;;;;;;4933727;28;20054;-87
2023/11/18 10:34:27;;;;;;;0.20;0.20;;;;;;;;;;4931905;28;20133;-87
2023/11/18 10:50:59;;;;;;;1.45;0.90;;;;;;;;;;5004858;28;20093;-86
2023/11/18 10:53:26;;;;;;;5.05;1.63;;;;;;;;;;4988953;28;20130;-86
2023/11/18 11:01:42;;;;;;;8.13;2.30;;;;;;;;;;5012860;28;20044;-86
2023/11/18 11:04:44;;;;;;;3.42;1.35;;;;;;;;;;5015015;28;20071;-86
2023/11/18 11:11:03;;;;;;;1.75;1.13;;;;;;;;;;4961506;28;20054;-86
2023/11/18 11:14:05;;;;;;;;;;;;;;;;;;;;;
2023/11/18 11:21:41;;;;;;;0.63;0.43;;;;;;;;;;5004319;28;20073;-84
2023/11/18 11:24:12;;;;;;;1.10;0.63;;;;;;;;;;5025065;28;20030;-85
2023/11/18 11:26:42;;;;;;;1.15;0.85;;;;;;;;;;5017694;28;20046;-83
2023/11/18 11:29:14;;;;;;;0.75;0.40;;;;;;;;;;5007308;28;20079;-84
2023/11/18 11:31:41;;;;;;;;;;;;;;;;;;5007408;28;20101;-84
2023/11/18 11:34:10;;;;;;;2.25;0.52;;;;;;;;;;4992872;28;19913;-84
2023/11/18 11:36:45;;;;;;;1.23;0.60;;;;;;;;;;5010833;28;20050;-85
2023/11/18 11:39:15;;;;;;;0.60;0.30;;;;;;;;;;4991389;28;20045;-84
2023/11/18 11:41:47;;;;;;;2.47;1.13;;;;;;;;;;5009791;28;20079;-84
2023/11/18 11:44:52;;;;;;;;;;;;;;;;;;;;;
2023/11/18 12:17:55;;;;;;;2.13;0.75;;;;;;;;;;5030820;23;20053;-84
2023/11/18 12:20:53;;;;;;;3.28;1.23;;;;;;;;;;5021276;28;20080;-84
2023/11/18 12:23:23;;;;;;;0.68;0.50;;;;;;;;;;5021973;28;20122;-85
2023/11/18 12:25:54;;;;;;;0.50;0.30;;;;;;;;;;5022085;28;20033;-85
2023/11/18 12:28:26;;;;;;;0.70;0.45;;;;;;;;;;5023759;28;20098;-86
2023/11/18 12:30:55;;;;;;;1.98;0.75;;;;;;;;;;5022738;28;20033;-86
2023/11/18 12:33:26;;;;;;;1.27;0.65;;;;;;;;;;5006862;28;20045;-87
2023/11/18 12:35:55;;;;;;;1.40;0.57;;;;;;;;;;5010305;28;20477;-85
2023/11/18 12:38:45;;;;;;;1.40;0.65;;;;;;;;;;5021159;28;20096;-86
2023/11/18 12:41:19;;;;;;;1.17;0.57;;;;;;;;;;4999372;28;20069;-86
2023/11/18 12:43:52;;;;;;;1.30;0.82;;;;;;;;;;5004561;28;20033;-87
2023/11/18 12:46:19;;;;;;;;;;;;;;;;;;5001747;28;20125;-88
2023/11/18 12:48:49;;;;;;;1.73;0.80;;;;;;;;;;5002953;28;19913;-87
2023/11/18 12:51:19;;;;;;;3.10;1.10;;;;;;;;;;5008900;28;20044;-88
2023/11/18 12:53:53;;;;;;;2.42;1.40;;;;;;;;;;5006698;28;20048;-88
2023/11/18 12:56:25;;;;;;;3.60;1.90;;;;;;;;;;5000171;28;20040;-87
2023/11/18 12:58:53;;;;;;;8.05;1.55;;;;;;;;;;5019331;28;20060;-86
2023/11/18 13:01:19;;;;;;;5.25;2.65;;;;;;;;;;5001681;28;20045;-87
2023/11/18 13:03:46;;;;;;;7.63;4.88;;;;;;;;;;5010469;28;20038;-88
2023/11/18 13:06:13;;;;;;;9.48;4.13;;;;;;;;;;5007093;28;20061;-86
2023/11/18 13:08:40;;;;;;;6.43;1.75;;;;;;;;;;5004290;28;20036;-86
2023/11/18 13:11:12;;;;;;;7.95;2.08;;;;;;;;;;4995157;28;20042;-86
2023/11/18 13:13:38;;;;;;;1.65;1.02;;;;;;;;;;5002625;28;20057;-86
2023/11/18 13:16:08;;;;;;;2.13;1.25;;;;;;;;;;5020032;28;20033;-85
2023/11/18 13:18:50;;;;;;;2.08;0.25;;;;;;;;;;5026244;28;20050;-88
2023/11/18 13:21:30;;;;;;;4.03;0.40;;;;;;;;;;5007856;28;20040;-88
2023/11/18 13:40:38;;;;;;;2.85;1.02;;;;;;;;;;4981452;28;20072;-88
2023/11/18 13:43:13;;;;;;;1.05;0.45;;;;;;;;;;4974007;28;20077;-88
2023/11/18 13:45:59;;;;;;;4.50;1.67;;;;;;;;;;4975978;28;20042;-86
2023/11/18 13:51:39;;;;;;;2.42;0.73;;;;;;;;;;4951781;28;20081;-86
2023/11/18 13:54:09;;;;;;;3.00;1.55;;;;;;;;;;4972335;28;20761;-84
2023/11/18 14:03:38;;;;;;;1.70;0.82;;;;;;;;;;4984258;28;20057;-88
2023/11/18 14:33:35;;;;;;;;;;;;;;;;;;5023133;28;20151;-88
2023/11/18 14:36:58;;;;;;;1.05;0.60;;;;;;;;;;5019630;28;20703;-90
2023/11/18 14:39:25;;;;;;;3.55;1.33;;;;;;;;;;4923373;29;20035;-85
2023/11/18 14:41:55;;;;;;;;;;;;;;;;;;4917820;28;20123;-87
2023/11/18 14:44:21;;;;;;;2.50;0.68;;;;;;;;;;5030000;28;19932;-85
2023/11/18 14:46:47;;;;;;;2.30;0.30;;;;;;;;;;5013968;28;20121;-82
2023/11/18 14:49:13;;;;;;;2.67;0.52;;;;;;;;;;5013464;28;20046;-85
2023/11/18 14:51:43;;;;;;;0.95;0.68;;;;;;;;;;5004524;28;20083;-84
2023/11/18 14:54:09;;;;;;;1.20;0.63;;;;;;;;;;5010401;28;20045;-85
2023/11/18 14:59:22;;;;;;;2.50;0.93;;;;;;;;;;5019992;28;20500;-84
2023/11/18 15:01:48;;;;;;;0.32;0.17;;;;;;;;;;5000263;28;20544;-86
2023/11/18 15:16:10;;;;;;;5.00;0.60;;;;;;;;;;5240147;23;20055;-87
2023/11/18 16:31:19;;;;;;;1.40;0.50;;;;;;;;;;3388871;23;20036;31
2023/11/18 16:33:51;;;;;;;0.73;0.30;;;;;;;;;;4949540;29;20190;-86
2023/11/18 16:36:19;;;;;;;;;;;;;;;;;;4914691;29;20043;-86
2023/11/18 16:38:57;;;;;;;;;;;;;;;;;;;;;
2023/11/18 16:41:35;;;;;;;8.35;1.45;;;;;;;;;;4914792;29;20032;-85
2023/11/18 16:47:16;;;;;;;2.35;1.67;;;;;;;;;;4910314;29;20048;-87
2023/11/18 16:49:44;;;;;;;2.28;1.58;;;;;;;;;;5288496;23;20523;-86
2023/11/18 16:52:29;;;;;;;1.40;0.50;;;;;;;;;;5033652;28;20183;-89
2023/11/18 17:09:23;;;;;;;1.92;1.08;;;;;;;;;;5048478;22;20052;-85
2023/11/18 17:12:21;;;;;;;0.60;0.40;;;;;;;;;;5026326;28;20045;-86
2023/11/18 17:14:48;;;;;;;1.35;0.52;;;;;;;;;;4976488;28;20129;-83
2023/11/18 17:17:14;;;;;;;0.68;0.50;;;;;;;;;;5019297;28;20072;-83
2023/11/18 17:23:04;;;;;;;;;;;;;;;;;;5046652;23;20057;-85
2023/11/18 17:32:03;;;;;;;0.35;0.17;;;;;;;;;;4981076;28;20623;-84
2023/11/18 17:34:29;;;;;;;;;;;;;;;;;;4978657;28;20049;-84
2023/11/18 17:36:56;;;;;;;0.80;0.25;;;;;;;;;;5025402;28;19936;-82
2023/11/18 17:39:23;;;;;;;0.40;0.17;;;;;;;;;;5024868;28;20057;-85
2023/11/18 17:41:49;;;;;;;1.23;0.40;;;;;;;;;;5031040;28;20057;-85
2023/11/18 17:44:17;;;;;;;1.95;0.55;;;;;;;;;;5030611;28;20072;-85
2023/11/18 17:46:43;;;;;;;0.93;0.45;;;;;;;;;;5030756;28;20046;-87
2023/11/18 17:49:11;;;;;;;4.80;0.60;;;;;;;;;;5012739;28;20037;-85
2023/11/18 17:51:37;;;;;;;1.23;0.35;;;;;;;;;;5016860;28;20493;-85
2023/11/18 17:54:05;;;;;;;0.10;0.10;;;;;;;;;;5026595;28;20073;-84
2023/11/18 17:56:32;;;;;;;0.65;0.30;;;;;;;;;;5026211;28;20488;-83
2023/11/18 17:58:58;;;;;;;2.85;1.08;;;;;;;;;;5014964;28;20037;-83
2023/11/18 18:01:24;;;;;;;0.20;0.20;;;;;;;;;;5016452;28;20393;-83
2023/11/18 18:03:53;;;;;;;6.13;0.47;;;;;;;;;;5025119;28;20040;-86
2023/11/18 18:06:21;;;;;;;3.22;1.13;;;;;;;;;;5035131;28;20079;-85
2023/11/18 18:08:58;;;;;;;2.05;0.20;;;;;;;;;;5037548;28;20517;-85
2023/11/18 18:11:33;;;;;;;0.80;0.35;;;;;;;;;;5017460;28;20038;-86
2023/11/18 18:13:59;;;;;;;1.42;1.13;;;;;;;;;;5023172;28;20132;-82
2023/11/18 18:16:25;;;;;;;2.20;1.05;;;;;;;;;;5032302;28;20156;-84
2023/11/18 18:18:51;;;;;;;;;;;;;;;;;;5033698;28;20044;-85
2023/11/18 18:21:26;;;;;;;4.18;1.40;;;;;;;;;;5033730;28;20273;-85
2023/11/18 18:23:56;;;;;;;4.30;1.30;;;;;;;;;;5221723;22;20842;-85
2023/11/18 18:34:30;;;;;;;2.63;1.13;;;;;;;;;;5032504;28;20072;-85
2023/11/18 18:36:56;;;;;;;2.42;1.00;;;;;;;;;;5031575;28;20038;-83
2023/11/18 18:39:22;;;;;;;7.65;1.77;;;;;;;;;;5033101;28;20080;-81
2023/11/18 18:41:48;;;;;;;3.63;1.40;;;;;;;;;;5034078;28;20041;-86
2023/11/18 18:44:17;;;;;;;4.65;1.77;;;;;;;;;;5022871;28;20834;-84
2023/11/18 18:53:07;;;;;;;6.57;0.80;;;;;;;;;;5012614;28;20486;-87
2023/11/18 18:55:44;;;;;;;1.77;0.60;;;;;;;;;;5012700;28;20064;-85
2023/11/18 18:58:10;;;;;;;1.17;0.63;;;;;;;;;;5288972;23;20046;-87
2023/11/18 19:00:36;;;;;;;0.77;0.35;;;;;;;;;;5032822;28;20057;-85
2023/11/18 19:05:38;;;;;;;1.10;0.57;;;;;;;;;;5048173;23;20575;-85
2023/11/18 19:08:07;;;;;;;2.53;0.93;;;;;;;;;;5008121;28;20042;-87
2023/11/18 19:10:40;;;;;;;3.05;0.70;;;;;;;;;;4989258;28;20053;-86
2023/11/18 19:13:25;;;;;;;;;;;;;;;;;;5112725;22;20053;-88
2023/11/18 19:16:01;;;;;;;2.45;0.65;;;;;;;;;;5010031;28;19909;-87
2023/11/18 20:30:22;;;;;;;2.90;1.42;;;;;;;;;;5936156;23;20293;31
